ESSB

Stockholm/Bromma

Airport
ICAO code
ESSB
Summary
ICAO Region
EUR
ICAO Territory
Location

Stockholm Municipality,

Elevation
47 ft
Coordinates
59° 21' 16" N , 17° 56' 30" E
KCC
Metar
Observation
ESSB 281020Z 14003KT 9999 BKN022 04/01 Q1027
Station
Stockholm / Bromma
Date/Time
2022-11-28 10:20:00
Wind direction
140°
Wind speed
03 kts
Lowest cloud amount
broken clouds
Temperature
4°C
Dew point
1°C
Humidity
80%
QNH
1027 hPa
Weather condition
n/a

Description

Stockholm-Bromma Airport is an airport in Stockholm, Sweden. Stockholm-Bromma Airport is located 4 nm west northwest of downtown Stockholm and is the closest to the city.

Climatology

Temperate Marine climate/Oceanic climate (Köppen climate classification Cfb). Moderately cool summer and comparatively warm winter.

Runways

Designator Length Width Surface Rops
12/30 1668 45 ASP Yes/Yes

Airport map

Aerial View

SKYbrary Partners:

Safety knowledge contributed by: